sensor_id;sensor_type;location;lat;lon;timestamp;pressure;altitude;pressure_sealevel;temperature;humidity
76553;BME280;65395;53.168;18.156;2023-01-09T00:00:49;99917.85;;;4.96;81.42
76553;BME280;65395;53.168;18.156;2023-01-09T00:03:23;99917.86;;;4.95;81.44
76553;BME280;65395;53.168;18.156;2023-01-09T00:05:50;99914.72;;;4.97;81.40
76553;BME280;65395;53.168;18.156;2023-01-09T00:08:17;99910.69;;;5.00;81.38
76553;BME280;65395;53.168;18.156;2023-01-09T00:10:45;99906.61;;;5.00;81.27
76553;BME280;65395;53.168;18.156;2023-01-09T00:13:12;99908.06;;;5.04;81.19
76553;BME280;65395;53.168;18.156;2023-01-09T00:15:40;99911.97;;;5.06;81.21
76553;BME280;65395;53.168;18.156;2023-01-09T00:18:07;99907.20;;;5.07;81.22
76553;BME280;65395;53.168;18.156;2023-01-09T00:20:35;99901.47;;;5.07;81.26
76553;BME280;65395;53.168;18.156;2023-01-09T00:23:02;99900.68;;;5.06;81.22
76553;BME280;65395;53.168;18.156;2023-01-09T00:25:29;99899.39;;;5.06;81.24
76553;BME280;65395;53.168;18.156;2023-01-09T00:27:56;99897.55;;;5.05;81.17
76553;BME280;65395;53.168;18.156;2023-01-09T00:30:22;99901.00;;;5.06;81.13
76553;BME280;65395;53.168;18.156;2023-01-09T00:32:49;99895.41;;;5.07;81.14
76553;BME280;65395;53.168;18.156;2023-01-09T00:35:17;99895.77;;;5.06;81.08
76553;BME280;65395;53.168;18.156;2023-01-09T00:37:44;99892.86;;;5.04;81.18
76553;BME280;65395;53.168;18.156;2023-01-09T00:40:13;99891.81;;;5.06;81.15
76553;BME280;65395;53.168;18.156;2023-01-09T00:42:42;99887.52;;;5.09;81.12
76553;BME280;65395;53.168;18.156;2023-01-09T00:45:15;99881.80;;;5.12;81.11
76553;BME280;65395;53.168;18.156;2023-01-09T00:47:47;99882.38;;;5.12;81.02
76553;BME280;65395;53.168;18.156;2023-01-09T00:50:20;99889.63;;;5.14;81.08
76553;BME280;65395;53.168;18.156;2023-01-09T00:52:49;99892.30;;;5.14;80.99
76553;BME280;65395;53.168;18.156;2023-01-09T00:55:16;99893.14;;;5.15;80.94
76553;BME280;65395;53.168;18.156;2023-01-09T00:57:43;99892.35;;;5.16;80.97
76553;BME280;65395;53.168;18.156;2023-01-09T01:00:11;99885.91;;;5.17;80.96
76553;BME280;65395;53.168;18.156;2023-01-09T01:02:38;99882.56;;;5.18;81.02
76553;BME280;65395;53.168;18.156;2023-01-09T01:05:05;99877.13;;;5.19;80.96
76553;BME280;65395;53.168;18.156;2023-01-09T01:07:42;99873.55;;;5.17;80.80
76553;BME280;65395;53.168;18.156;2023-01-09T01:10:16;99875.52;;;5.14;80.86
76553;BME280;65395;53.168;18.156;2023-01-09T01:12:47;99882.18;;;5.09;80.86
76553;BME280;65395;53.168;18.156;2023-01-09T01:15:15;99884.91;;;5.06;80.92
76553;BME280;65395;53.168;18.156;2023-01-09T01:17:42;99870.52;;;4.96;80.95
76553;BME280;65395;53.168;18.156;2023-01-09T01:20:13;99879.61;;;5.00;81.05
76553;BME280;65395;53.168;18.156;2023-01-09T01:22:40;99871.56;;;4.98;80.96
76553;BME280;65395;53.168;18.156;2023-01-09T01:25:09;99864.11;;;4.95;80.97
76553;BME280;65395;53.168;18.156;2023-01-09T01:27:37;99861.92;;;4.92;81.11
76553;BME280;65395;53.168;18.156;2023-01-09T01:30:05;99858.95;;;4.90;81.20
76553;BME280;65395;53.168;18.156;2023-01-09T01:32:33;99857.86;;;4.91;81.13
76553;BME280;65395;53.168;18.156;2023-01-09T01:34:59;99858.70;;;4.90;81.17
76553;BME280;65395;53.168;18.156;2023-01-09T01:37:26;99858.55;;;4.88;81.17
76553;BME280;65395;53.168;18.156;2023-01-09T01:39:53;99854.21;;;4.88;81.24
76553;BME280;65395;53.168;18.156;2023-01-09T01:42:20;99851.70;;;4.89;81.19
76553;BME280;65395;53.168;18.156;2023-01-09T01:50:23;99847.15;;;4.90;81.14
76553;BME280;65395;53.168;18.156;2023-01-09T01:53:06;99848.40;;;4.91;81.11
76553;BME280;65395;53.168;18.156;2023-01-09T01:55:36;99848.04;;;4.91;81.18
76553;BME280;65395;53.168;18.156;2023-01-09T01:58:07;99843.40;;;4.91;81.19
76553;BME280;65395;53.168;18.156;2023-01-09T02:00:38;99832.54;;;4.88;81.24
76553;BME280;65395;53.168;18.156;2023-01-09T02:03:06;99830.31;;;4.85;81.18
76553;BME280;65395;53.168;18.156;2023-01-09T02:05:35;99826.70;;;4.83;81.23
76553;BME280;65395;53.168;18.156;2023-01-09T02:08:05;99828.60;;;4.82;81.35
76553;BME280;65395;53.168;18.156;2023-01-09T02:10:33;99827.91;;;4.82;81.36
76553;BME280;65395;53.168;18.156;2023-01-09T02:13:01;99828.02;;;4.81;81.36
76553;BME280;65395;53.168;18.156;2023-01-09T02:15:36;99825.23;;;4.86;81.36
76553;BME280;65395;53.168;18.156;2023-01-09T02:18:18;99820.42;;;4.89;81.31
76553;BME280;65395;53.168;18.156;2023-01-09T02:20:55;99822.29;;;4.90;81.22
76553;BME280;65395;53.168;18.156;2023-01-09T02:23:59;99819.21;;;4.90;81.20
76553;BME280;65395;53.168;18.156;2023-01-09T02:26:41;99811.63;;;4.83;81.41
76553;BME280;65395;53.168;18.156;2023-01-09T02:29:38;99823.46;;;4.85;81.31
76553;BME280;65395;53.168;18.156;2023-01-09T02:32:30;99819.14;;;4.85;81.36
76553;BME280;65395;53.168;18.156;2023-01-09T02:35:26;99823.71;;;4.88;81.42
76553;BME280;65395;53.168;18.156;2023-01-09T02:41:09;99826.25;;;4.92;81.16
76553;BME280;65395;53.168;18.156;2023-01-09T02:43:38;99824.58;;;4.94;81.22
76553;BME280;65395;53.168;18.156;2023-01-09T02:46:18;99820.66;;;4.95;81.06
76553;BME280;65395;53.168;18.156;2023-01-09T02:48:49;99816.95;;;4.95;81.18
76553;BME280;65395;53.168;18.156;2023-01-09T02:51:26;99819.77;;;4.93;81.19
76553;BME280;65395;53.168;18.156;2023-01-09T02:54:09;99821.82;;;4.93;81.15
76553;BME280;65395;53.168;18.156;2023-01-09T02:59:42;99824.11;;;4.92;81.23
76553;BME280;65395;53.168;18.156;2023-01-09T03:02:31;99818.45;;;4.97;81.22
76553;BME280;65395;53.168;18.156;2023-01-09T03:05:10;99815.45;;;5.02;81.10
76553;BME280;65395;53.168;18.156;2023-01-09T03:07:44;99817.89;;;5.07;81.02
76553;BME280;65395;53.168;18.156;2023-01-09T03:10:35;99815.84;;;5.08;81.01
76553;BME280;65395;53.168;18.156;2023-01-09T03:13:04;99814.01;;;5.09;80.98
76553;BME280;65395;53.168;18.156;2023-01-09T03:15:34;99805.66;;;5.08;80.94
76553;BME280;65395;53.168;18.156;2023-01-09T03:18:05;99802.27;;;5.07;81.00
76553;BME280;65395;53.168;18.156;2023-01-09T03:20:34;99794.99;;;5.07;81.12
76553;BME280;65395;53.168;18.156;2023-01-09T03:23:03;99794.69;;;5.08;80.98
76553;BME280;65395;53.168;18.156;2023-01-09T03:25:31;99789.88;;;5.08;81.03
76553;BME280;65395;53.168;18.156;2023-01-09T03:28:02;99778.28;;;5.08;81.01
76553;BME280;65395;53.168;18.156;2023-01-09T03:30:30;99775.23;;;5.11;80.98
76553;BME280;65395;53.168;18.156;2023-01-09T03:32:58;99776.16;;;5.13;81.01
76553;BME280;65395;53.168;18.156;2023-01-09T03:35:25;99782.38;;;5.15;81.04
76553;BME280;65395;53.168;18.156;2023-01-09T03:37:52;99783.46;;;5.16;81.02
76553;BME280;65395;53.168;18.156;2023-01-09T03:40:19;99780.48;;;5.17;80.95
76553;BME280;65395;53.168;18.156;2023-01-09T03:42:46;99777.63;;;5.15;80.90
76553;BME280;65395;53.168;18.156;2023-01-09T03:45:13;99773.70;;;5.14;80.89
76553;BME280;65395;53.168;18.156;2023-01-09T03:47:40;99770.10;;;5.14;80.89
76553;BME280;65395;53.168;18.156;2023-01-09T03:50:07;99769.21;;;5.15;80.93
76553;BME280;65395;53.168;18.156;2023-01-09T03:52:35;99767.07;;;5.15;80.85
76553;BME280;65395;53.168;18.156;2023-01-09T03:55:01;99761.10;;;5.16;80.79
76553;BME280;65395;53.168;18.156;2023-01-09T03:57:28;99763.61;;;5.16;80.79
76553;BME280;65395;53.168;18.156;2023-01-09T03:59:55;99760.85;;;5.17;80.80
76553;BME280;65395;53.168;18.156;2023-01-09T04:02:22;99755.91;;;5.18;80.90
76553;BME280;65395;53.168;18.156;2023-01-09T04:04:48;99756.59;;;5.19;80.93
76553;BME280;65395;53.168;18.156;2023-01-09T04:07:15;99751.59;;;5.17;80.73
76553;BME280;65395;53.168;18.156;2023-01-09T04:09:42;99749.88;;;5.14;80.75
76553;BME280;65395;53.168;18.156;2023-01-09T04:12:09;99754.02;;;5.12;80.87
76553;BME280;65395;53.168;18.156;2023-01-09T04:14:35;99759.66;;;5.12;80.84
76553;BME280;65395;53.168;18.156;2023-01-09T04:17:02;99759.83;;;5.11;80.83
76553;BME280;65395;53.168;18.156;2023-01-09T04:19:29;99762.38;;;5.11;80.84
76553;BME280;65395;53.168;18.156;2023-01-09T04:21:56;99761.37;;;5.13;80.65
76553;BME280;65395;53.168;18.156;2023-01-09T04:24:22;99755.61;;;5.16;80.86
76553;BME280;65395;53.168;18.156;2023-01-09T04:26:49;99752.83;;;5.18;80.75
76553;BME280;65395;53.168;18.156;2023-01-09T04:29:16;99750.48;;;5.20;80.64
76553;BME280;65395;53.168;18.156;2023-01-09T04:31:42;99748.21;;;5.20;80.74
76553;BME280;65395;53.168;18.156;2023-01-09T04:34:09;99746.14;;;5.18;80.73
76553;BME280;65395;53.168;18.156;2023-01-09T04:36:35;99740.94;;;5.15;80.57
76553;BME280;65395;53.168;18.156;2023-01-09T04:39:02;99742.93;;;5.13;80.73
76553;BME280;65395;53.168;18.156;2023-01-09T04:41:29;99743.16;;;5.11;80.75
76553;BME280;65395;53.168;18.156;2023-01-09T04:44:06;99743.63;;;5.11;80.78
76553;BME280;65395;53.168;18.156;2023-01-09T04:46:32;99748.73;;;5.13;80.67
76553;BME280;65395;53.168;18.156;2023-01-09T04:48:59;99751.19;;;5.14;80.73
76553;BME280;65395;53.168;18.156;2023-01-09T04:51:26;99753.11;;;5.15;80.63
76553;BME280;65395;53.168;18.156;2023-01-09T04:53:52;99752.73;;;5.16;80.73
76553;BME280;65395;53.168;18.156;2023-01-09T04:56:19;99750.55;;;5.16;80.69
76553;BME280;65395;53.168;18.156;2023-01-09T04:58:46;99756.27;;;5.14;80.60
76553;BME280;65395;53.168;18.156;2023-01-09T05:01:13;99758.58;;;5.11;80.73
76553;BME280;65395;53.168;18.156;2023-01-09T05:03:39;99757.58;;;5.11;80.75
76553;BME280;65395;53.168;18.156;2023-01-09T05:06:06;99757.58;;;5.11;80.67
76553;BME280;65395;53.168;18.156;2023-01-09T05:08:33;99759.46;;;5.11;80.66
76553;BME280;65395;53.168;18.156;2023-01-09T05:11:00;99757.16;;;5.11;80.73
76553;BME280;65395;53.168;18.156;2023-01-09T05:13:27;99754.10;;;5.14;80.69
76553;BME280;65395;53.168;18.156;2023-01-09T05:15:53;99754.11;;;5.15;80.60
76553;BME280;65395;53.168;18.156;2023-01-09T05:18:20;99746.65;;;5.13;80.58
76553;BME280;65395;53.168;18.156;2023-01-09T05:20:47;99749.32;;;5.10;80.65
76553;BME280;65395;53.168;18.156;2023-01-09T05:23:13;99747.06;;;5.06;80.65
76553;BME280;65395;53.168;18.156;2023-01-09T05:25:40;99750.84;;;5.03;80.67
76553;BME280;65395;53.168;18.156;2023-01-09T05:28:07;99744.64;;;5.01;80.68
76553;BME280;65395;53.168;18.156;2023-01-09T05:30:34;99742.45;;;5.00;80.71
76553;BME280;65395;53.168;18.156;2023-01-09T05:33:01;99738.46;;;5.01;80.85
76553;BME280;65395;53.168;18.156;2023-01-09T05:35:28;99734.61;;;5.00;80.84
76553;BME280;65395;53.168;18.156;2023-01-09T05:37:55;99724.69;;;4.98;80.80
76553;BME280;65395;53.168;18.156;2023-01-09T05:40:25;99717.02;;;4.97;80.82
76553;BME280;65395;53.168;18.156;2023-01-09T05:42:51;99714.20;;;4.95;80.85
76553;BME280;65395;53.168;18.156;2023-01-09T05:45:18;99712.18;;;4.95;80.83
76553;BME280;65395;53.168;18.156;2023-01-09T05:47:45;99712.13;;;4.95;80.89
76553;BME280;65395;53.168;18.156;2023-01-09T05:50:13;99713.34;;;4.93;80.85
76553;BME280;65395;53.168;18.156;2023-01-09T05:52:39;99710.75;;;4.89;80.94
76553;BME280;65395;53.168;18.156;2023-01-09T05:55:08;99706.80;;;4.86;80.96
76553;BME280;65395;53.168;18.156;2023-01-09T05:57:36;99701.44;;;4.83;80.98
76553;BME280;65395;53.168;18.156;2023-01-09T06:00:04;99697.79;;;4.81;81.03
76553;BME280;65395;53.168;18.156;2023-01-09T06:02:33;99693.63;;;4.78;81.08
76553;BME280;65395;53.168;18.156;2023-01-09T06:05:00;99694.02;;;4.75;81.10
76553;BME280;65395;53.168;18.156;2023-01-09T06:07:27;99689.77;;;4.72;81.15
76553;BME280;65395;53.168;18.156;2023-01-09T06:09:53;99697.28;;;4.70;81.05
76553;BME280;65395;53.168;18.156;2023-01-09T06:12:20;99695.42;;;4.67;81.10
76553;BME280;65395;53.168;18.156;2023-01-09T06:14:47;99684.39;;;4.61;81.08
76553;BME280;65395;53.168;18.156;2023-01-09T06:17:13;99681.48;;;4.56;81.17
76553;BME280;65395;53.168;18.156;2023-01-09T06:19:40;99679.69;;;4.49;81.21
76553;BME280;65395;53.168;18.156;2023-01-09T06:22:07;99676.33;;;4.43;81.27
76553;BME280;65395;53.168;18.156;2023-01-09T06:24:33;99675.67;;;4.35;81.33
76553;BME280;65395;53.168;18.156;2023-01-09T06:27:00;99667.94;;;4.27;81.33
76553;BME280;65395;53.168;18.156;2023-01-09T06:29:27;99658.89;;;4.19;81.42
76553;BME280;65395;53.168;18.156;2023-01-09T06:31:53;99656.73;;;4.12;81.54
76553;BME280;65395;53.168;18.156;2023-01-09T06:34:20;99661.50;;;4.06;81.52
76553;BME280;65395;53.168;18.156;2023-01-09T06:36:46;99660.31;;;4.01;81.54
76553;BME280;65395;53.168;18.156;2023-01-09T06:39:13;99661.37;;;3.98;81.69
76553;BME280;65395;53.168;18.156;2023-01-09T06:41:40;99664.98;;;3.96;81.74
76553;BME280;65395;53.168;18.156;2023-01-09T06:44:07;99665.97;;;3.94;81.76
76553;BME280;65395;53.168;18.156;2023-01-09T06:46:34;99665.55;;;3.95;81.83
76553;BME280;65395;53.168;18.156;2023-01-09T06:49:00;99670.82;;;3.94;81.79
76553;BME280;65395;53.168;18.156;2023-01-09T06:51:27;99671.23;;;3.93;81.83
76553;BME280;65395;53.168;18.156;2023-01-09T06:53:54;99671.96;;;3.94;81.87
76553;BME280;65395;53.168;18.156;2023-01-09T06:56:20;99669.88;;;3.95;81.82
76553;BME280;65395;53.168;18.156;2023-01-09T06:58:47;99673.17;;;3.94;81.84
76553;BME280;65395;53.168;18.156;2023-01-09T07:01:14;99672.06;;;3.93;81.80
76553;BME280;65395;53.168;18.156;2023-01-09T07:03:41;99671.91;;;3.92;81.76
76553;BME280;65395;53.168;18.156;2023-01-09T07:06:09;99677.06;;;3.91;81.77
76553;BME280;65395;53.168;18.156;2023-01-09T07:08:36;99679.79;;;3.88;81.76
76553;BME280;65395;53.168;18.156;2023-01-09T07:11:02;99676.98;;;3.84;81.69
76553;BME280;65395;53.168;18.156;2023-01-09T07:13:29;99674.77;;;3.80;81.77
76553;BME280;65395;53.168;18.156;2023-01-09T07:15:56;99672.78;;;3.77;81.84
76553;BME280;65395;53.168;18.156;2023-01-09T07:18:23;99668.27;;;3.75;81.81
76553;BME280;65395;53.168;18.156;2023-01-09T07:20:50;99664.92;;;3.73;81.80
76553;BME280;65395;53.168;18.156;2023-01-09T07:23:17;99666.28;;;3.72;81.77
76553;BME280;65395;53.168;18.156;2023-01-09T07:25:44;99667.09;;;3.71;81.89
76553;BME280;65395;53.168;18.156;2023-01-09T07:28:11;99660.08;;;3.72;81.79
76553;BME280;65395;53.168;18.156;2023-01-09T07:30:37;99659.19;;;3.73;81.82
76553;BME280;65395;53.168;18.156;2023-01-09T07:33:04;99659.95;;;3.73;81.83
76553;BME280;65395;53.168;18.156;2023-01-09T07:35:31;99668.83;;;3.73;81.73
76553;BME280;65395;53.168;18.156;2023-01-09T07:37:58;99673.15;;;3.71;81.78
76553;BME280;65395;53.168;18.156;2023-01-09T07:40:25;99671.27;;;3.71;81.84
76553;BME280;65395;53.168;18.156;2023-01-09T07:42:52;99677.43;;;3.73;81.84
76553;BME280;65395;53.168;18.156;2023-01-09T07:45:19;99681.59;;;3.75;81.77
76553;BME280;65395;53.168;18.156;2023-01-09T07:47:48;99670.66;;;3.71;81.78
76553;BME280;65395;53.168;18.156;2023-01-09T07:50:15;99683.62;;;3.82;81.81
76553;BME280;65395;53.168;18.156;2023-01-09T07:52:43;99687.05;;;3.82;81.71
76553;BME280;65395;53.168;18.156;2023-01-09T07:55:10;99689.82;;;3.82;81.85
76553;BME280;65395;53.168;18.156;2023-01-09T07:57:37;99696.14;;;3.81;81.82
76553;BME280;65395;53.168;18.156;2023-01-09T08:00:05;99695.77;;;3.78;81.83
76553;BME280;65395;53.168;18.156;2023-01-09T08:02:38;99689.00;;;3.75;81.85
76553;BME280;65395;53.168;18.156;2023-01-09T08:05:06;99687.80;;;3.73;81.97
76553;BME280;65395;53.168;18.156;2023-01-09T08:07:34;99686.34;;;3.73;82.03
76553;BME280;65395;53.168;18.156;2023-01-09T08:10:01;99682.06;;;3.73;81.99
76553;BME280;65395;53.168;18.156;2023-01-09T08:12:28;99676.73;;;3.76;82.13
76553;BME280;65395;53.168;18.156;2023-01-09T08:14:54;99678.20;;;3.79;82.06
76553;BME280;65395;53.168;18.156;2023-01-09T08:17:21;99678.20;;;3.83;82.05
76553;BME280;65395;53.168;18.156;2023-01-09T08:19:48;99676.56;;;3.87;82.06
76553;BME280;65395;53.168;18.156;2023-01-09T08:22:14;99681.10;;;3.89;81.95
76553;BME280;65395;53.168;18.156;2023-01-09T08:24:41;99677.14;;;3.87;82.00
76553;BME280;65395;53.168;18.156;2023-01-09T08:27:08;99675.80;;;3.85;82.09
76553;BME280;65395;53.168;18.156;2023-01-09T08:29:35;99671.66;;;3.84;82.03
76553;BME280;65395;53.168;18.156;2023-01-09T08:32:02;99672.81;;;3.85;82.07
76553;BME280;65395;53.168;18.156;2023-01-09T08:34:28;99675.00;;;3.89;82.13
76553;BME280;65395;53.168;18.156;2023-01-09T08:36:58;99665.66;;;3.92;82.11
76553;BME280;65395;53.168;18.156;2023-01-09T08:39:25;99661.11;;;3.91;82.02
76553;BME280;65395;53.168;18.156;2023-01-09T08:41:52;99655.39;;;3.93;82.08
76553;BME280;65395;53.168;18.156;2023-01-09T08:44:29;99647.45;;;3.96;82.08
76553;BME280;65395;53.168;18.156;2023-01-09T08:47:06;99646.23;;;3.99;82.04
76553;BME280;65395;53.168;18.156;2023-01-09T08:49:34;99631.59;;;3.96;82.04
76553;BME280;65395;53.168;18.156;2023-01-09T08:52:02;99632.83;;;4.02;82.10
76553;BME280;65395;53.168;18.156;2023-01-09T08:54:29;99632.60;;;4.08;82.09
76553;BME280;65395;53.168;18.156;2023-01-09T08:56:56;99630.45;;;4.13;81.96
76553;BME280;65395;53.168;18.156;2023-01-09T08:59:26;99624.69;;;4.17;81.89
76553;BME280;65395;53.168;18.156;2023-01-09T09:01:52;99623.42;;;4.20;81.77
76553;BME280;65395;53.168;18.156;2023-01-09T09:04:19;99625.05;;;4.20;81.77
76553;BME280;65395;53.168;18.156;2023-01-09T09:06:46;99621.21;;;4.23;81.87
76553;BME280;65395;53.168;18.156;2023-01-09T09:09:13;99616.83;;;4.25;81.82
76553;BME280;65395;53.168;18.156;2023-01-09T09:11:40;99617.59;;;4.29;81.72
76553;BME280;65395;53.168;18.156;2023-01-09T09:14:07;99610.17;;;4.30;81.68
76553;BME280;65395;53.168;18.156;2023-01-09T09:16:44;99609.63;;;4.35;81.69
76553;BME280;65395;53.168;18.156;2023-01-09T09:19:10;99606.82;;;4.41;81.68
76553;BME280;65395;53.168;18.156;2023-01-09T09:21:37;99612.89;;;4.48;81.57
76553;BME280;65395;53.168;18.156;2023-01-09T09:24:04;99611.35;;;4.53;81.46
76553;BME280;65395;53.168;18.156;2023-01-09T09:26:31;99608.89;;;4.54;81.35
76553;BME280;65395;53.168;18.156;2023-01-09T09:28:58;99613.96;;;4.60;81.39
76553;BME280;65395;53.168;18.156;2023-01-09T09:31:25;99613.80;;;4.65;81.33
76553;BME280;65395;53.168;18.156;2023-01-09T09:33:51;99611.10;;;4.69;81.28
76553;BME280;65395;53.168;18.156;2023-01-09T09:36:18;99613.08;;;4.69;81.26
76553;BME280;65395;53.168;18.156;2023-01-09T09:38:45;99609.38;;;4.70;81.18
76553;BME280;65395;53.168;18.156;2023-01-09T09:41:33;99604.23;;;4.73;81.17
76553;BME280;65395;53.168;18.156;2023-01-09T09:44:54;99592.50;;;4.77;81.12
76553;BME280;65395;53.168;18.156;2023-01-09T09:47:35;99587.14;;;4.82;81.05
76553;BME280;65395;53.168;18.156;2023-01-09T09:50:22;99585.80;;;4.88;80.98
76553;BME280;65395;53.168;18.156;2023-01-09T09:53:10;99580.80;;;4.92;80.92
76553;BME280;65395;53.168;18.156;2023-01-09T09:55:39;99578.59;;;4.94;80.84
76553;BME280;65395;53.168;18.156;2023-01-09T09:58:16;99578.84;;;4.95;80.79
76553;BME280;65395;53.168;18.156;2023-01-09T10:00:49;99576.96;;;4.95;80.74
76553;BME280;65395;53.168;18.156;2023-01-09T10:03:34;99577.68;;;4.96;80.86
76553;BME280;65395;53.168;18.156;2023-01-09T10:06:08;99581.59;;;4.97;80.95
76553;BME280;65395;53.168;18.156;2023-01-09T10:11:32;99586.39;;;5.04;80.79
76553;BME280;65395;53.168;18.156;2023-01-09T10:14:00;99584.01;;;5.07;80.71
76553;BME280;65395;53.168;18.156;2023-01-09T10:16:43;99577.88;;;5.04;80.75
76553;BME280;65395;53.168;18.156;2023-01-09T10:25:07;99564.20;;;5.14;80.60
76553;BME280;65395;53.168;18.156;2023-01-09T10:27:53;99565.73;;;5.14;80.67
76553;BME280;65395;53.168;18.156;2023-01-09T10:30:35;99553.19;;;5.14;80.57
76553;BME280;65395;53.168;18.156;2023-01-09T10:33:19;99543.67;;;5.15;80.53
76553;BME280;65395;53.168;18.156;2023-01-09T10:36:16;99539.36;;;5.17;80.49
76553;BME280;65395;53.168;18.156;2023-01-09T10:38:49;99543.11;;;5.19;80.53
76553;BME280;65395;53.168;18.156;2023-01-09T10:41:23;99548.33;;;5.24;80.63
76553;BME280;65395;53.168;18.156;2023-01-09T10:43:58;99547.17;;;5.29;80.51
76553;BME280;65395;53.168;18.156;2023-01-09T10:46:34;99542.86;;;5.34;80.39
76553;BME280;65395;53.168;18.156;2023-01-09T10:49:11;99549.05;;;5.35;80.43
76553;BME280;65395;53.168;18.156;2023-01-09T10:51:47;99554.53;;;5.36;80.48
76553;BME280;65395;53.168;18.156;2023-01-09T10:54:19;99557.00;;;5.35;80.56
76553;BME280;65395;53.168;18.156;2023-01-09T10:57:01;99562.52;;;5.37;80.62
76553;BME280;65395;53.168;18.156;2023-01-09T10:59:31;99557.91;;;5.38;80.58
76553;BME280;65395;53.168;18.156;2023-01-09T11:02:00;99560.90;;;5.42;80.66
76553;BME280;65395;53.168;18.156;2023-01-09T11:04:31;99556.52;;;5.47;80.60
76553;BME280;65395;53.168;18.156;2023-01-09T11:07:12;99553.89;;;5.48;80.56
76553;BME280;65395;53.168;18.156;2023-01-09T11:09:55;99547.80;;;5.46;80.58
76553;BME280;65395;53.168;18.156;2023-01-09T11:12:26;99543.81;;;5.47;80.74
76553;BME280;65395;53.168;18.156;2023-01-09T11:14:54;99546.20;;;5.48;80.59
76553;BME280;65395;53.168;18.156;2023-01-09T11:17:25;99543.50;;;5.47;80.65
76553;BME280;65395;53.168;18.156;2023-01-09T11:20:02;99536.91;;;5.48;80.71
76553;BME280;65395;53.168;18.156;2023-01-09T11:22:42;99533.94;;;5.46;80.65
76553;BME280;65395;53.168;18.156;2023-01-09T11:25:12;99535.26;;;5.45;80.74
76553;BME280;65395;53.168;18.156;2023-01-09T11:27:39;99534.09;;;5.46;80.75
76553;BME280;65395;53.168;18.156;2023-01-09T11:30:16;99535.09;;;5.46;80.88
76553;BME280;65395;53.168;18.156;2023-01-09T11:32:46;99531.90;;;5.46;81.05
76553;BME280;65395;53.168;18.156;2023-01-09T11:35:20;99526.88;;;5.47;81.01
76553;BME280;65395;53.168;18.156;2023-01-09T11:37:55;99526.81;;;5.49;81.04
76553;BME280;65395;53.168;18.156;2023-01-09T11:40:23;99519.95;;;5.49;81.12
76553;BME280;65395;53.168;18.156;2023-01-09T11:43:03;99524.47;;;5.52;81.14
76553;BME280;65395;53.168;18.156;2023-01-09T11:45:33;99521.16;;;5.53;81.17
76553;BME280;65395;53.168;18.156;2023-01-09T11:48:15;99516.88;;;5.53;81.21
76553;BME280;65395;53.168;18.156;2023-01-09T11:50:53;99518.61;;;5.54;81.20
76553;BME280;65395;53.168;18.156;2023-01-09T11:53:20;99518.73;;;5.54;81.19
76553;BME280;65395;53.168;18.156;2023-01-09T11:55:55;99521.42;;;5.58;81.16
76553;BME280;65395;53.168;18.156;2023-01-09T11:58:22;99522.67;;;5.62;81.20
76553;BME280;65395;53.168;18.156;2023-01-09T12:04:08;99512.33;;;5.71;81.08
76553;BME280;65395;53.168;18.156;2023-01-09T12:09:33;99500.83;;;5.66;81.19
76553;BME280;65395;53.168;18.156;2023-01-09T12:12:21;99497.61;;;5.64;81.16
76553;BME280;65395;53.168;18.156;2023-01-09T12:15:20;99497.07;;;5.66;81.36
76553;BME280;65395;53.168;18.156;2023-01-09T12:18:03;99496.71;;;5.69;81.34
76553;BME280;65395;53.168;18.156;2023-01-09T12:26:14;99487.53;;;5.80;81.12
76553;BME280;65395;53.168;18.156;2023-01-09T12:31:55;99481.80;;;5.83;81.17
76553;BME280;65395;53.168;18.156;2023-01-09T12:34:41;99474.42;;;5.82;81.36
76553;BME280;65395;53.168;18.156;2023-01-09T12:40:37;99475.82;;;5.80;81.16
76553;BME280;65395;53.168;18.156;2023-01-09T12:43:23;99475.96;;;5.81;81.14
76553;BME280;65395;53.168;18.156;2023-01-09T12:46:18;99476.05;;;5.82;81.23
76553;BME280;65395;53.168;18.156;2023-01-09T12:57:13;99462.06;;;5.80;81.20
76553;BME280;65395;53.168;18.156;2023-01-09T12:59:52;99462.77;;;5.81;81.40
76553;BME280;65395;53.168;18.156;2023-01-09T13:02:27;99463.56;;;5.81;81.41
76553;BME280;65395;53.168;18.156;2023-01-09T13:05:01;99461.95;;;5.80;81.40
76553;BME280;65395;53.168;18.156;2023-01-09T13:07:39;99464.13;;;5.83;81.41
76553;BME280;65395;53.168;18.156;2023-01-09T13:10:18;99463.23;;;5.88;81.30
76553;BME280;65395;53.168;18.156;2023-01-09T13:12:49;99460.09;;;5.89;81.36
76553;BME280;65395;53.168;18.156;2023-01-09T13:15:28;99459.57;;;5.91;81.46
76553;BME280;65395;53.168;18.156;2023-01-09T13:18:04;99458.60;;;5.90;81.49
76553;BME280;65395;53.168;18.156;2023-01-09T13:20:43;99455.63;;;5.89;81.47
76553;BME280;65395;53.168;18.156;2023-01-09T13:23:32;99453.55;;;5.92;81.44
76553;BME280;65395;53.168;18.156;2023-01-09T13:26:04;99448.84;;;5.97;81.33
76553;BME280;65395;53.168;18.156;2023-01-09T13:28:35;99451.61;;;5.99;81.34
76553;BME280;65395;53.168;18.156;2023-01-09T13:31:31;99450.35;;;6.01;81.17
76553;BME280;65395;53.168;18.156;2023-01-09T13:34:03;99448.95;;;6.03;81.07
76553;BME280;65395;53.168;18.156;2023-01-09T13:36:36;99446.04;;;6.05;81.16
76553;BME280;65395;53.168;18.156;2023-01-09T13:39:04;99449.73;;;6.06;81.24
76553;BME280;65395;53.168;18.156;2023-01-09T13:41:31;99451.94;;;6.10;81.25
76553;BME280;65395;53.168;18.156;2023-01-09T13:44:21;99453.16;;;6.12;81.07
76553;BME280;65395;53.168;18.156;2023-01-09T13:46:52;99454.73;;;6.13;81.09
76553;BME280;65395;53.168;18.156;2023-01-09T13:49:31;99459.80;;;6.12;81.00
76553;BME280;65395;53.168;18.156;2023-01-09T13:55:00;99461.69;;;6.05;81.20
76553;BME280;65395;53.168;18.156;2023-01-09T13:57:31;99465.96;;;6.06;81.17
76553;BME280;65395;53.168;18.156;2023-01-09T14:03:04;99469.93;;;6.00;81.41
76553;BME280;65395;53.168;18.156;2023-01-09T14:06:01;99472.56;;;5.99;81.37
76553;BME280;65395;53.168;18.156;2023-01-09T14:08:29;99471.73;;;5.97;81.39
76553;BME280;65395;53.168;18.156;2023-01-09T14:10:59;99471.88;;;5.95;81.41
76553;BME280;65395;53.168;18.156;2023-01-09T14:13:30;99470.18;;;5.89;81.58